Time;durP1;ratioP1;P1;durP2;ratioP2;P2;SDS_P1;SDS_P2;PMS_P1;PMS_P2;Temp;Humidity;BMP_temperature;BMP_pressure;BME280_temperature;BME280_humidity;BME280_pressure;Samples;Min_cycle;Max_cycle;Signal;HPM_P1;HPM_P2
2023/08/05 00:00:39;;;;;;;3.43;2.70;;;;;;;15.58;100.00;96076.66;4971958;28;105215;-66
2023/08/05 00:03:07;;;;;;;4.33;2.90;;;;;;;15.58;100.00;96080.13;4969026;28;102025;-63
2023/08/05 00:05:34;;;;;;;2.83;2.63;;;;;;;15.57;100.00;96078.53;4970574;28;102931;-65
2023/08/05 00:08:01;;;;;;;3.17;2.70;;;;;;;15.58;100.00;96079.34;4968577;28;105398;-65
2023/08/05 00:10:30;;;;;;;5.00;3.00;;;;;;;15.59;100.00;96072.91;4969053;28;101949;-65
2023/08/05 00:12:57;;;;;;;3.33;2.80;;;;;;;15.60;100.00;96075.25;4969128;28;105487;-65
2023/08/05 00:15:24;;;;;;;2.97;2.77;;;;;;;15.58;100.00;96071.31;4968341;28;105402;-65
2023/08/05 00:17:51;;;;;;;3.20;2.60;;;;;;;15.61;100.00;96068.03;4970406;28;101902;-64
2023/08/05 00:20:19;;;;;;;3.47;2.77;;;;;;;15.64;100.00;96072.81;4985122;28;105343;-65
2023/08/05 00:22:46;;;;;;;3.20;2.40;;;;;;;15.66;100.00;96060.72;4971861;28;105831;-63
2023/08/05 00:25:12;;;;;;;3.13;2.83;;;;;;;15.59;100.00;96062.16;4968969;28;105394;-63
2023/08/05 00:27:41;;;;;;;6.43;3.10;;;;;;;15.59;100.00;96057.59;4968274;28;105839;-63
2023/08/05 00:30:09;;;;;;;3.23;3.00;;;;;;;15.54;100.00;96056.88;4968613;28;101909;-63
2023/08/05 00:32:36;;;;;;;3.00;2.80;;;;;;;15.61;100.00;96062.66;4968895;28;105481;-63
2023/08/05 00:35:04;;;;;;;4.67;3.10;;;;;;;15.62;100.00;96058.91;4968411;28;105432;-63
2023/08/05 00:37:31;;;;;;;3.10;2.80;;;;;;;15.65;100.00;96061.00;4968616;28;102085;-66
2023/08/05 00:39:58;;;;;;;3.17;2.60;;;;;;;15.69;100.00;96062.03;4968455;28;105217;-66
2023/08/05 00:42:27;;;;;;;4.00;2.70;;;;;;;15.65;100.00;96056.44;4971688;28;105789;-65
2023/08/05 00:44:56;;;;;;;4.60;2.90;;;;;;;15.56;100.00;96058.19;4968528;28;105411;-65
2023/08/05 00:47:23;;;;;;;3.00;2.63;;;;;;;15.66;100.00;96054.56;4968057;28;104306;-65
2023/08/05 00:49:52;;;;;;;3.50;2.70;;;;;;;15.54;100.00;96056.88;4968602;28;102146;-65
2023/08/05 00:52:21;;;;;;;3.03;2.70;;;;;;;15.56;100.00;96057.38;4968857;28;105224;-66
2023/08/05 00:54:49;;;;;;;5.03;2.70;;;;;;;15.58;100.00;96047.97;4968204;28;105537;-65
2023/08/05 00:57:17;;;;;;;3.17;2.87;;;;;;;15.57;100.00;96037.53;4968502;28;102081;-67
2023/08/05 00:59:44;;;;;;;3.60;2.93;;;;;;;15.50;100.00;96037.09;4968340;28;105733;-66
2023/08/05 01:02:12;;;;;;;3.03;2.83;;;;;;;15.48;100.00;96041.97;4967897;28;105599;-66
2023/08/05 01:04:40;;;;;;;4.10;2.80;;;;;;;15.55;100.00;96037.84;4971855;28;101969;-66
2023/08/05 01:07:07;;;;;;;2.87;2.60;;;;;;;15.55;100.00;96028.97;4967989;28;105550;-66
2023/08/05 01:09:34;;;;;;;2.83;2.60;;;;;;;15.52;100.00;96032.22;4968209;28;102051;-66
2023/08/05 01:12:01;;;;;;;3.00;2.77;;;;;;;15.55;100.00;96026.31;4968275;28;105438;-66
2023/08/05 01:14:29;;;;;;;2.70;2.50;;;;;;;15.60;100.00;96023.56;4967947;28;105476;-66
2023/08/05 01:16:56;;;;;;;3.30;3.00;;;;;;;15.47;100.00;96005.53;4968299;28;101898;-66
2023/08/05 01:19:28;;;;;;;2.80;2.60;;;;;;;15.38;100.00;96005.34;4968443;28;105610;-66
2023/08/05 01:22:02;;;;;;;3.33;2.90;;;;;;;15.38;100.00;95988.50;4967123;28;105943;-66
2023/08/05 01:24:35;;;;;;;3.23;2.93;;;;;;;15.27;100.00;95987.78;4968329;28;101864;-66
2023/08/05 01:27:06;;;;;;;2.97;2.60;;;;;;;15.15;100.00;95983.97;4970923;28;105495;-66
2023/08/05 01:29:34;;;;;;;2.90;2.70;;;;;;;15.08;100.00;95986.19;4968234;28;101988;-66
2023/08/05 01:32:02;;;;;;;3.30;3.00;;;;;;;15.02;100.00;95987.34;4968358;28;105059;-67
2023/08/05 01:34:29;;;;;;;3.40;2.70;;;;;;;15.02;100.00;95988.16;4967717;28;105404;-66
2023/08/05 01:36:56;;;;;;;3.10;2.80;;;;;;;14.97;100.00;95982.06;4968299;28;102129;-66
2023/08/05 01:39:23;;;;;;;4.13;3.10;;;;;;;14.98;100.00;95983.66;4968560;28;105410;-66
2023/08/05 01:41:50;;;;;;;3.50;2.90;;;;;;;14.99;100.00;95980.69;4967466;28;103923;-66
2023/08/05 01:44:18;;;;;;;3.37;3.07;;;;;;;14.91;100.00;95988.56;4968191;28;102001;-66
2023/08/05 01:46:45;;;;;;;7.93;3.40;;;;;;;14.94;100.00;95982.63;4968081;28;106030;-65
2023/08/05 01:49:12;;;;;;;4.13;3.83;;;;;;;14.99;100.00;95990.63;4970770;28;105050;-66
2023/08/05 01:51:39;;;;;;;3.97;3.67;;;;;;;14.97;100.00;95990.91;4970738;28;104908;-66
2023/08/05 01:54:05;;;;;;;4.00;3.60;;;;;;;14.91;100.00;95999.25;4970647;28;105482;-65
2023/08/05 01:56:32;;;;;;;4.70;3.93;;;;;;;14.90;100.00;95995.00;4987626;28;102005;-65
2023/08/05 01:58:59;;;;;;;4.57;4.10;;;;;;;14.86;100.00;95991.28;4971327;28;105441;-65
2023/08/05 02:01:43;;;;;;;6.20;4.33;;;;;;;14.94;100.00;95982.63;4970586;28;105374;-65
2023/08/05 02:04:11;;;;;;;4.47;4.00;;;;;;;14.88;100.00;95983.78;4971245;28;102168;-67
2023/08/05 02:06:38;;;;;;;4.97;4.47;;;;;;;14.97;100.00;95982.06;4971100;28;104393;-67
2023/08/05 02:09:06;;;;;;;4.47;4.17;;;;;;;14.94;100.00;95990.66;4971758;28;103067;-67
2023/08/05 02:11:33;;;;;;;5.33;4.50;;;;;;;14.98;100.00;95994.38;4974057;28;102023;-66
2023/08/05 02:14:00;;;;;;;4.37;4.00;;;;;;;15.00;100.00;96009.03;4970282;28;105585;-67
2023/08/05 02:16:27;;;;;;;4.93;4.20;;;;;;;15.03;100.00;96013.03;4970753;28;101947;-67
2023/08/05 02:18:56;;;;;;;5.17;4.67;;;;;;;15.01;100.00;96020.56;4970684;28;105526;-67
2023/08/05 02:21:24;;;;;;;4.50;4.20;;;;;;;15.02;100.00;96024.84;4969588;28;105552;-67
2023/08/05 02:23:52;;;;;;;5.23;4.80;;;;;;;15.00;100.00;96018.97;4970824;28;102291;-67
2023/08/05 02:26:21;;;;;;;5.83;4.67;;;;;;;14.93;100.00;96013.19;4971700;28;104191;-67
2023/08/05 02:28:48;;;;;;;5.30;4.83;;;;;;;14.89;100.00;96012.94;4970023;28;105705;-67
2023/08/05 02:31:16;;;;;;;5.60;5.10;;;;;;;14.88;100.00;96007.88;4970469;28;102044;-64
2023/08/05 02:33:43;;;;;;;5.40;5.00;;;;;;;14.87;100.00;96025.81;4973338;28;105419;-64
2023/08/05 02:36:11;;;;;;;5.70;5.20;;;;;;;14.85;100.00;96021.81;4970872;28;101933;-64
2023/08/05 02:38:38;;;;;;;6.87;5.13;;;;;;;14.78;100.00;96024.84;4970757;28;105207;-64
2023/08/05 02:41:06;;;;;;;6.97;5.43;;;;;;;14.76;100.00;96018.19;4969873;28;105663;-65
2023/08/05 02:43:34;;;;;;;5.63;5.13;;;;;;;14.79;100.00;96026.47;4970450;28;102019;-64
2023/08/05 02:46:01;;;;;;;5.37;4.90;;;;;;;14.82;100.00;96017.06;4970417;28;104222;-64
2023/08/05 02:48:28;;;;;;;5.97;5.47;;;;;;;14.87;100.00;96017.00;4969854;28;105578;-64
2023/08/05 02:50:56;;;;;;;6.53;5.93;;;;;;;14.89;100.00;96015.59;4970400;28;101957;-64
2023/08/05 02:53:25;;;;;;;5.87;5.37;;;;;;;14.89;100.00;96017.50;4972719;28;105727;-64
2023/08/05 02:55:52;;;;;;;6.00;5.50;;;;;;;14.89;100.00;96022.84;4986813;28;101982;-64
2023/08/05 02:58:21;;;;;;;7.27;5.93;;;;;;;14.84;100.00;96026.41;4970239;28;105313;-64
2023/08/05 03:00:48;;;;;;;7.07;5.80;;;;;;;14.82;100.00;96038.47;4969439;28;105619;-64
2023/08/05 03:03:17;;;;;;;7.40;6.70;;;;;;;14.83;100.00;96035.50;4970417;28;101954;-64
2023/08/05 03:05:44;;;;;;;6.83;6.23;;;;;;;14.82;100.00;96049.97;4970241;28;105214;-64
2023/08/05 03:08:11;;;;;;;6.90;6.27;;;;;;;14.80;100.00;96054.81;4969425;28;104206;-64
2023/08/05 03:10:40;;;;;;;6.83;6.00;;;;;;;14.83;100.00;96056.13;4986636;28;102240;-64
2023/08/05 03:13:07;;;;;;;7.47;6.77;;;;;;;14.84;100.00;96052.38;4970216;28;104889;-64
2023/08/05 03:15:34;;;;;;;6.73;6.20;;;;;;;14.78;100.00;96045.47;4972700;28;105536;-65
2023/08/05 03:18:09;;;;;;;6.90;6.27;;;;;;;14.77;100.00;96044.66;4969809;28;105290;-65
2023/08/05 03:20:36;;;;;;;6.57;5.97;;;;;;;14.80;100.00;96051.34;4968879;28;105654;-65
2023/08/05 03:23:11;;;;;;;7.30;6.60;;;;;;;14.84;100.00;96047.00;4970009;28;102312;-65
2023/08/05 03:25:40;;;;;;;6.80;6.30;;;;;;;14.81;100.00;96053.72;4969882;28;105507;-65
2023/08/05 03:28:09;;;;;;;6.50;6.00;;;;;;;14.84;100.00;96057.72;4969257;28;105702;-65
2023/08/05 03:30:40;;;;;;;6.73;6.13;;;;;;;14.88;100.00;96058.75;4969818;28;101896;-65
2023/08/05 03:33:10;;;;;;;7.50;6.73;;;;;;;14.80;100.00;96062.03;4969600;28;105294;-63
2023/08/05 03:35:37;;;;;;;7.97;7.20;;;;;;;14.86;100.00;96052.88;4970563;28;103161;-63
2023/08/05 03:38:04;;;;;;;6.80;6.23;;;;;;;14.90;100.00;96057.38;4972861;28;102334;-63
2023/08/05 03:40:32;;;;;;;7.03;6.37;;;;;;;14.91;100.00;96052.81;4968939;28;105497;-63
2023/08/05 03:43:01;;;;;;;7.50;6.80;;;;;;;14.88;100.00;96048.03;4969728;28;102313;-63
2023/08/05 03:45:28;;;;;;;7.33;6.73;;;;;;;14.89;100.00;96049.63;4986049;28;105510;-63
2023/08/05 03:47:56;;;;;;;7.10;6.40;;;;;;;14.89;100.00;96053.09;4968681;28;105867;-63
2023/08/05 03:50:28;;;;;;;7.87;6.43;;;;;;;14.89;100.00;96047.72;4969298;28;102380;-63
2023/08/05 03:52:55;;;;;;;9.00;8.13;;;;;;;14.89;100.00;96049.63;4969216;28;104147;-65
2023/08/05 03:55:22;;;;;;;8.83;8.10;;;;;;;14.94;100.00;96053.03;4968877;28;105605;-65
2023/08/05 03:57:50;;;;;;;9.50;8.60;;;;;;;14.95;100.00;96051.16;4969359;28;102102;-65
2023/08/05 04:00:19;;;;;;;10.33;9.23;;;;;;;14.89;100.00;96049.63;4972193;28;105627;-66
2023/08/05 04:02:47;;;;;;;9.53;8.73;;;;;;;14.88;100.00;96056.06;4969264;28;102069;-67
2023/08/05 04:05:14;;;;;;;9.47;8.77;;;;;;;14.95;100.00;96059.19;4969160;28;105267;-67
2023/08/05 04:07:41;;;;;;;10.43;9.50;;;;;;;14.87;100.00;96055.25;4968344;28;105708;-67
2023/08/05 04:10:09;;;;;;;11.87;9.87;;;;;;;14.85;100.00;96053.97;4969004;28;101904;-67
2023/08/05 04:12:36;;;;;;;10.40;9.40;;;;;;;14.88;100.00;96058.75;4968675;28;105465;-66
2023/08/05 04:15:03;;;;;;;10.13;9.23;;;;;;;14.85;100.00;96053.97;4968376;28;105405;-67
2023/08/05 04:17:34;;;;;;;10.73;9.43;;;;;;;14.85;100.00;96057.44;4985577;28;102048;-67
2023/08/05 04:20:01;;;;;;;10.93;9.97;;;;;;;14.84;100.00;96060.41;4969035;28;105443;-66
2023/08/05 04:22:30;;;;;;;10.97;9.97;;;;;;;14.90;100.00;96059.25;4970518;28;105578;-66
2023/08/05 04:24:57;;;;;;;10.90;9.90;;;;;;;14.88;100.00;96064.09;4968082;28;105733;-66
2023/08/05 04:27:25;;;;;;;11.67;10.57;;;;;;;14.87;100.00;96051.81;4968064;28;105526;-68
2023/08/05 04:29:52;;;;;;;11.43;10.43;;;;;;;14.86;100.00;96052.88;4967864;28;102107;-67
2023/08/05 04:32:20;;;;;;;11.43;10.37;;;;;;;14.83;100.00;96040.06;4967713;28;105344;-67
2023/08/05 04:34:49;;;;;;;11.83;10.83;;;;;;;14.82;100.00;96038.47;4967380;28;105808;-67
2023/08/05 04:37:16;;;;;;;11.90;10.90;;;;;;;14.84;100.00;96031.75;4967877;28;101992;-67
2023/08/05 04:39:43;;;;;;;11.57;10.47;;;;;;;14.86;100.00;96034.13;4967711;28;105411;-67
2023/08/05 04:42:10;;;;;;;12.90;11.80;;;;;;;14.85;100.00;96027.19;4967409;28;105903;-65
2023/08/05 04:44:37;;;;;;;13.13;11.87;;;;;;;14.84;100.00;96026.41;4971243;28;101961;-65
2023/08/05 04:47:04;;;;;;;12.90;11.67;;;;;;;14.89;100.00;96023.63;4968444;28;103257;-64
2023/08/05 04:49:31;;;;;;;11.70;10.70;;;;;;;14.82;100.00;96017.84;4967685;28;101931;-64
2023/08/05 04:52:02;;;;;;;12.07;10.97;;;;;;;14.89;100.00;96029.00;4967726;28;104269;-64
2023/08/05 04:54:29;;;;;;;11.37;10.37;;;;;;;14.91;100.00;96036.75;4968917;28;102579;-65
2023/08/05 04:56:56;;;;;;;11.47;10.57;;;;;;;14.96;100.00;96037.50;4967563;28;102007;-65
2023/08/05 04:59:22;;;;;;;12.00;10.90;;;;;;;14.89;100.00;96028.22;4967669;28;105815;-65
2023/08/05 05:01:50;;;;;;;12.43;11.23;;;;;;;14.93;100.00;96035.38;4967215;28;105385;-66
2023/08/05 05:04:17;;;;;;;12.33;11.20;;;;;;;14.89;100.00;96028.22;4970913;28;102051;-66
2023/08/05 05:06:44;;;;;;;12.13;11.03;;;;;;;14.86;100.00;96026.91;4967005;28;105524;-64
2023/08/05 05:09:14;;;;;;;11.90;10.90;;;;;;;14.87;100.00;96041.88;4967481;28;101974;-64
2023/08/05 05:11:41;;;;;;;11.57;10.53;;;;;;;14.81;100.00;96050.25;4967431;28;105343;-64
2023/08/05 05:14:08;;;;;;;10.77;9.77;;;;;;;14.86;100.00;96063.56;4968246;28;102945;-64
2023/08/05 05:16:35;;;;;;;11.47;10.47;;;;;;;14.85;100.00;96065.47;4968584;28;101908;-66
2023/08/05 05:19:02;;;;;;;11.53;10.47;;;;;;;14.85;100.00;96062.78;4967122;28;105969;-65
2023/08/05 05:21:29;;;;;;;10.87;9.97;;;;;;;14.79;100.00;96050.56;4966282;28;105852;-66
2023/08/05 05:23:56;;;;;;;10.43;9.53;;;;;;;14.80;100.00;96043.31;4966993;28;102023;-65
2023/08/05 05:26:24;;;;;;;10.37;9.47;;;;;;;14.78;100.00;96048.16;4955272;28;105574;-66
2023/08/05 05:28:51;;;;;;;10.03;9.17;;;;;;;14.84;100.00;96044.34;4953807;28;101821;-66
2023/08/05 05:31:18;;;;;;;10.40;9.50;;;;;;;14.88;100.00;96053.41;4957817;28;104382;-66
2023/08/05 05:33:47;;;;;;;9.50;8.70;;;;;;;14.78;100.00;96053.50;4963972;28;103149;-66
2023/08/05 05:36:14;;;;;;;9.60;8.80;;;;;;;14.77;100.00;96067.97;4966533;28;102376;-66
2023/08/05 05:38:41;;;;;;;9.20;8.43;;;;;;;14.78;100.00;96069.56;4973595;28;103088;-65
2023/08/05 05:41:08;;;;;;;9.50;8.70;;;;;;;14.82;100.00;96065.25;4971710;28;103165;-67
2023/08/05 05:43:38;;;;;;;9.67;8.87;;;;;;;14.73;100.00;96057.03;4972108;28;102049;-68
2023/08/05 05:46:06;;;;;;;8.87;8.17;;;;;;;14.61;100.00;96066.53;4973360;28;102547;-67
2023/08/05 05:48:33;;;;;;;8.83;8.10;;;;;;;14.66;100.00;96061.13;4974838;28;105723;-65
2023/08/05 05:51:01;;;;;;;9.23;8.43;;;;;;;14.65;100.00;96070.22;4971923;28;105218;-65
2023/08/05 05:53:28;;;;;;;9.40;8.70;;;;;;;14.69;100.00;96060.56;4972903;28;102601;-66
2023/08/05 05:55:55;;;;;;;9.57;8.60;;;;;;;14.73;100.00;96061.59;4972123;28;102046;-66
2023/08/05 05:58:22;;;;;;;10.00;9.13;;;;;;;14.75;100.00;96054.06;4973379;28;102548;-63
2023/08/05 06:00:55;;;;;;;9.90;9.10;;;;;;;14.77;100.00;96054.59;4971415;28;105493;-67
2023/08/05 06:03:21;;;;;;;9.47;8.67;;;;;;;14.77;100.00;96051.91;4972011;28;102139;-73
2023/08/05 06:05:50;;;;;;;9.37;8.67;;;;;;;14.69;100.00;96045.31;4972060;28;105647;-70
2023/08/05 06:08:17;;;;;;;9.70;8.90;;;;;;;14.76;100.00;96047.63;4971296;28;105817;-72
2023/08/05 06:10:44;;;;;;;9.57;8.77;;;;;;;14.79;100.00;96055.91;4975397;28;102013;-66
2023/08/05 06:13:11;;;;;;;9.80;8.80;;;;;;;14.73;100.00;96058.91;4954848;28;106173;-67
2023/08/05 06:15:41;;;;;;;8.50;7.83;;;;;;;14.70;100.00;96072.84;4973141;28;101896;-67
2023/08/05 06:18:10;;;;;;;9.30;8.60;;;;;;;14.76;100.00;96066.34;4971339;28;105167;-67
2023/08/05 06:20:38;;;;;;;9.57;8.67;;;;;;;14.74;100.00;96063.19;4971621;28;101918;-67
2023/08/05 06:23:06;;;;;;;8.90;8.20;;;;;;;14.73;100.00;96077.66;4971604;28;101967;-67
2023/08/05 06:25:33;;;;;;;9.90;9.00;;;;;;;14.72;100.00;96076.06;4971269;28;105432;-67
2023/08/05 06:28:00;;;;;;;10.53;9.63;;;;;;;14.76;100.00;96082.41;4970780;28;105353;-67
2023/08/05 06:30:27;;;;;;;9.57;8.77;;;;;;;14.74;100.00;96080.06;4971343;28;101929;-67
2023/08/05 06:32:54;;;;;;;9.43;8.73;;;;;;;14.74;100.00;96080.06;4973920;28;105422;-67
2023/08/05 06:35:24;;;;;;;9.47;8.73;;;;;;;14.76;100.00;96085.91;4971093;28;101934;-67
2023/08/05 06:37:51;;;;;;;9.50;8.70;;;;;;;14.77;100.00;96084.81;4982437;28;105465;-67
2023/08/05 06:40:18;;;;;;;10.37;9.37;;;;;;;14.75;100.00;96072.78;4990331;28;105729;-67
2023/08/05 06:42:45;;;;;;;10.17;9.37;;;;;;;14.81;100.00;96079.69;4991159;28;101963;-67
2023/08/05 06:45:13;;;;;;;10.70;9.80;;;;;;;14.80;100.00;96078.91;4990925;28;105393;-67
2023/08/05 06:47:40;;;;;;;10.10;9.30;;;;;;;14.80;100.00;96080.78;4990350;28;105765;-67
2023/08/05 06:50:09;;;;;;;9.60;8.87;;;;;;;14.76;100.00;96087.78;4990752;28;102257;-67
2023/08/05 06:52:38;;;;;;;10.70;9.80;;;;;;;14.80;100.00;96088.81;4990767;28;105417;-67
2023/08/05 06:55:06;;;;;;;10.20;9.20;;;;;;;14.78;100.00;96086.41;4992976;28;102157;-67
2023/08/05 06:57:33;;;;;;;10.43;9.53;;;;;;;14.83;100.00;96093.59;4990823;28;105618;-67
2023/08/05 07:00:00;;;;;;;10.20;9.40;;;;;;;14.84;100.00;96090.66;4990059;28;105784;-67
2023/08/05 07:02:27;;;;;;;10.47;9.57;;;;;;;14.85;100.00;96100.28;4974222;28;101975;-67
2023/08/05 07:04:55;;;;;;;10.10;9.30;;;;;;;14.91;100.00;96091.09;4990490;28;104366;-67
2023/08/05 07:07:26;;;;;;;10.80;9.90;;;;;;;14.93;100.00;96085.47;4989533;28;105510;-68
2023/08/05 07:10:01;;;;;;;11.00;10.10;;;;;;;14.93;100.00;96088.94;4990039;28;101831;-67
2023/08/05 07:12:31;;;;;;;10.67;9.77;;;;;;;14.92;100.00;96082.00;4990396;28;102861;-67
2023/08/05 07:14:58;;;;;;;9.83;9.07;;;;;;;14.93;100.00;96077.44;4992598;28;105622;-67
2023/08/05 07:17:29;;;;;;;10.37;9.53;;;;;;;14.95;100.00;96072.59;4991344;28;102677;-67
2023/08/05 07:20:00;;;;;;;10.13;9.40;;;;;;;15.03;100.00;96078.13;4989360;28;103232;-69
2023/08/05 07:22:27;;;;;;;10.23;9.33;;;;;;;15.06;100.00;96082.91;4989728;28;101902;-67
2023/08/05 07:24:56;;;;;;;12.23;11.23;;;;;;;15.09;100.00;96095.72;4989750;28;105402;-67
2023/08/05 07:27:24;;;;;;;10.93;10.03;;;;;;;15.21;100.00;96087.28;4988317;28;105755;-67
2023/08/05 07:29:51;;;;;;;12.23;11.13;;;;;;;15.21;100.00;96092.66;4988513;28;102054;-68
2023/08/05 07:32:18;;;;;;;13.30;12.00;;;;;;;15.28;100.00;96101.13;4988570;28;105469;-67
2023/08/05 07:34:46;;;;;;;12.80;11.60;;;;;;;15.18;100.00;96087.84;4990183;28;103175;-67
2023/08/05 07:37:14;;;;;;;13.60;12.43;;;;;;;15.19;100.00;96092.91;4976114;28;102108;-67
2023/08/05 07:39:46;;;;;;;12.50;11.43;;;;;;;15.38;100.00;96091.09;4988588;28;104511;-67
2023/08/05 07:42:15;;;;;;;11.53;10.53;;;;;;;15.40;100.00;96101.53;4951936;28;102447;-67
2023/08/05 07:44:42;;;;;;;11.80;10.80;;;;;;;15.34;100.00;96095.47;4949376;28;104867;-67
2023/08/05 07:47:09;;;;;;;12.40;11.40;;;;;;;15.37;100.00;96089.50;4950434;28;103051;-67
2023/08/05 07:49:38;;;;;;;12.07;11.07;;;;;;;15.40;100.00;96098.84;4948748;28;101928;-67
2023/08/05 07:52:06;;;;;;;11.93;11.03;;;;;;;15.40;100.00;96107.72;4950801;28;103098;-67
2023/08/05 07:54:33;;;;;;;12.27;11.27;;;;;;;15.39;100.00;96108.78;4949268;28;105562;-67
2023/08/05 07:57:00;;;;;;;13.10;12.00;;;;;;;15.57;100.00;96108.00;4950795;28;101844;-67
2023/08/05 07:59:30;;;;;;;11.97;10.87;;;;;;;15.52;100.00;96107.28;4952232;28;105121;-67
2023/08/05 08:01:57;;;;;;;10.93;10.07;;;;;;;15.52;100.00;96107.28;4933455;28;101828;-67
2023/08/05 08:04:24;;;;;;;11.43;10.43;;;;;;;15.56;100.00;96109.09;4950557;28;102878;-67
2023/08/05 08:06:52;;;;;;;10.90;10.00;;;;;;;15.47;100.00;96104.69;4950283;28;103079;-67
2023/08/05 08:09:19;;;;;;;11.13;10.13;;;;;;;15.41;100.00;96101.25;4950510;28;102021;-67
2023/08/05 08:11:46;;;;;;;10.93;9.93;;;;;;;15.45;100.00;96101.47;4949105;28;104849;-67
2023/08/05 08:14:13;;;;;;;10.93;10.10;;;;;;;15.47;100.00;96093.97;4950650;28;101906;-67
2023/08/05 08:16:42;;;;;;;11.37;10.27;;;;;;;15.45;100.00;96096.13;4949153;28;102408;-67
2023/08/05 08:19:10;;;;;;;12.00;11.00;;;;;;;15.56;100.00;96098.38;4949253;28;104252;-67
2023/08/05 08:21:37;;;;;;;11.17;10.27;;;;;;;15.54;100.00;96094.41;4951745;28;105797;-67
2023/08/05 08:24:07;;;;;;;11.33;10.43;;;;;;;15.63;100.00;96098.00;4949327;28;105325;-67
2023/08/05 08:26:34;;;;;;;11.03;10.13;;;;;;;15.63;100.00;96098.81;4948550;28;105444;-67
2023/08/05 08:29:01;;;;;;;11.20;10.20;;;;;;;15.66;100.00;96105.50;4948964;28;101955;-67
2023/08/05 08:31:30;;;;;;;11.20;10.30;;;;;;;15.68;100.00;96111.34;4949244;28;104137;-67
2023/08/05 08:33:58;;;;;;;11.87;10.90;;;;;;;15.64;100.00;96119.16;4948154;28;105734;-67
2023/08/05 08:36:25;;;;;;;11.03;10.13;;;;;;;15.64;100.00;96121.84;4948884;28;101838;-67
2023/08/05 08:38:53;;;;;;;9.83;9.03;;;;;;;15.73;100.00;96111.28;4950343;28;102826;-67
2023/08/05 08:41:20;;;;;;;10.37;9.47;;;;;;;15.84;100.00;96105.50;4950408;28;103123;-67
2023/08/05 08:43:48;;;;;;;9.93;9.13;;;;;;;15.76;100.00;96111.50;4954527;28;101840;-67
2023/08/05 08:46:17;;;;;;;9.50;8.77;;;;;;;15.82;100.00;96106.88;4950457;28;103099;-67
2023/08/05 08:48:45;;;;;;;9.07;8.37;;;;;;;15.78;100.00;96103.16;4949811;28;101908;-67
2023/08/05 08:51:14;;;;;;;8.87;8.20;;;;;;;15.80;100.00;96093.75;4949638;28;105475;-67
2023/08/05 08:53:43;;;;;;;8.73;8.03;;;;;;;15.80;100.00;96096.44;4949147;28;105357;-67
2023/08/05 08:56:11;;;;;;;9.03;8.33;;;;;;;15.92;100.00;96098.69;4949726;28;102110;-67
2023/08/05 08:58:38;;;;;;;9.00;8.30;;;;;;;15.95;100.00;96101.59;4949560;28;104247;-67
2023/08/05 09:01:06;;;;;;;8.83;8.17;;;;;;;16.12;100.00;96093.00;4952229;28;105713;-67
2023/08/05 09:03:35;;;;;;;8.70;7.97;;;;;;;16.06;100.00;96092.31;4956584;28;101913;-67
2023/08/05 09:06:02;;;;;;;8.47;7.80;;;;;;;15.99;100.00;96080.34;4952455;28;105822;-67
2023/08/05 09:08:33;;;;;;;8.07;7.47;;;;;;;16.03;100.00;96087.50;4952964;28;102076;-67
2023/08/05 09:11:01;;;;;;;9.37;8.57;;;;;;;16.04;100.00;96086.44;4952931;28;104156;-67
2023/08/05 09:13:28;;;;;;;8.07;7.47;;;;;;;16.12;100.00;96091.13;4952427;28;105788;-67
2023/08/05 09:15:56;;;;;;;7.77;7.17;;;;;;;16.12;100.00;96085.75;4952900;28;101919;-67
2023/08/05 09:18:23;;;;;;;8.80;8.20;;;;;;;15.97;100.00;96082.53;4952786;28;105575;-67
2023/08/05 09:20:51;;;;;;;9.07;8.33;;;;;;;16.05;100.00;96081.84;4951916;28;105565;-67
2023/08/05 09:23:18;;;;;;;8.60;8.00;;;;;;;15.90;100.00;96087.44;4952888;28;101946;-67
2023/08/05 09:25:49;;;;;;;8.70;8.10;;;;;;;15.87;100.00;96085.34;4955378;28;105253;-67
2023/08/05 09:28:30;;;;;;;8.33;7.70;;;;;;;15.95;100.00;96092.72;4952901;28;101872;-67
2023/08/05 09:31:17;;;;;;;8.70;7.90;;;;;;;16.02;100.00;96090.50;4952721;28;105305;-67
2023/08/05 09:33:45;;;;;;;7.50;6.90;;;;;;;16.06;100.00;96092.31;4952165;28;104466;-67
2023/08/05 09:36:13;;;;;;;8.30;7.70;;;;;;;16.14;100.00;96090.84;4952525;28;101986;-67
2023/08/05 09:38:40;;;;;;;8.50;7.70;;;;;;;16.26;100.00;96093.88;4952803;28;104114;-67
2023/08/05 09:41:09;;;;;;;8.13;7.53;;;;;;;16.34;100.00;96087.81;4951919;28;105862;-67
2023/08/05 09:43:40;;;;;;;8.23;7.63;;;;;;;16.34;100.00;96085.94;4952521;28;101996;-67
2023/08/05 09:46:11;;;;;;;8.13;7.43;;;;;;;16.38;100.00;96095.00;4952427;28;104965;-67
2023/08/05 09:48:42;;;;;;;8.17;7.47;;;;;;;16.34;100.00;96094.00;4955322;28;105516;-67
2023/08/05 09:51:13;;;;;;;8.10;7.50;;;;;;;16.30;100.00;96092.97;4953791;28;102788;-67
2023/08/05 09:53:42;;;;;;;8.63;8.03;;;;;;;16.33;100.00;96105.00;4951679;28;105659;-67
2023/08/05 09:56:12;;;;;;;7.83;7.23;;;;;;;16.49;100.00;96112.56;4952258;28;101812;-67
2023/08/05 09:58:40;;;;;;;7.90;7.30;;;;;;;16.43;100.00;96102.19;4953677;28;102619;-67
2023/08/05 10:01:08;;;;;;;8.17;7.47;;;;;;;16.44;100.00;96096.53;4953127;28;103226;-67
2023/08/05 10:03:38;;;;;;;9.43;8.53;;;;;;;16.50;100.00;96092.69;4952058;28;101956;-67
2023/08/05 10:06:09;;;;;;;10.83;9.87;;;;;;;16.57;100.00;96093.09;4952367;28;105453;-67
2023/08/05 10:08:36;;;;;;;11.90;10.80;;;;;;;16.53;100.00;96086.75;4951319;28;105868;-67
2023/08/05 10:11:05;;;;;;;8.80;8.10;;;;;;;16.58;100.00;96083.16;4955159;28;101969;-67
2023/08/05 10:13:38;;;;;;;8.33;7.70;;;;;;;16.46;100.00;96086.31;4951443;28;106186;-67
2023/08/05 10:16:07;;;;;;;9.23;8.53;;;;;;;16.59;100.00;96084.75;4952092;28;101914;-67
2023/08/05 10:18:35;;;;;;;8.60;8.00;;;;;;;16.60;100.00;96075.59;4952081;28;105346;-67
2023/08/05 10:21:05;;;;;;;8.73;8.13;;;;;;;16.66;100.00;96067.16;4950890;28;105651;-67
2023/08/05 10:23:35;;;;;;;7.27;6.67;;;;;;;16.66;100.00;96074.41;4952798;28;102048;-67
2023/08/05 10:26:03;;;;;;;8.50;7.73;;;;;;;16.72;100.00;96063.28;4964061;28;103074;-67
2023/08/05 10:28:42;;;;;;;7.10;6.50;;;;;;;16.60;100.00;96057.63;4970873;28;105593;-67
2023/08/05 10:31:28;;;;;;;6.33;5.73;;;;;;;16.64;100.00;96053.25;4971372;28;101930;-67
2023/08/05 10:34:12;;;;;;;7.13;6.53;;;;;;;16.70;100.00;96059.31;4965478;28;105517;-64
2023/08/05 10:36:43;;;;;;;6.40;5.90;;;;;;;16.73;100.00;96048.00;4960673;28;102121;-64
2023/08/05 10:39:46;;;;;;;7.00;6.50;;;;;;;16.87;100.00;96051.47;4971441;28;104870;-64
2023/08/05 10:42:34;;;;;;;6.60;6.10;;;;;;;16.73;100.00;96040.72;4970813;28;105582;-64
2023/08/05 10:45:05;;;;;;;5.67;5.27;;;;;;;16.62;100.00;96044.69;4971415;28;101899;-64
2023/08/05 10:47:33;;;;;;;5.07;4.67;;;;;;;16.59;100.00;96042.59;4971284;28;105488;-64
2023/08/05 10:50:01;;;;;;;5.40;5.00;;;;;;;16.76;100.00;96037.44;4970800;28;105350;-64
2023/08/05 10:52:28;;;;;;;5.37;4.97;;;;;;;16.84;100.00;96027.91;4971151;28;102041;-61
2023/08/05 10:54:56;;;;;;;4.77;4.47;;;;;;;17.10;100.00;96023.59;4968235;28;102524;-62
2023/08/05 10:57:45;;;;;;;4.60;4.30;;;;;;;17.05;100.00;96023.72;4954274;28;105760;-62
2023/08/05 11:00:20;;;;;;;4.87;4.57;;;;;;;17.08;100.00;96013.19;4963396;28;104490;-61
2023/08/05 11:02:49;;;;;;;4.87;4.57;;;;;;;17.31;100.00;96014.84;4970482;28;106024;-61
2023/08/05 11:05:16;;;;;;;5.50;5.10;;;;;;;17.51;100.00;96011.75;4971035;28;101933;-61
2023/08/05 11:07:43;;;;;;;5.50;5.07;;;;;;;17.54;100.00;96000.38;4970987;28;105034;-61
2023/08/05 11:10:12;;;;;;;5.03;4.63;;;;;;;17.37;100.00;96010.13;4970057;28;104297;-61
2023/08/05 11:12:39;;;;;;;4.60;4.30;;;;;;;17.21;100.00;96000.81;4972177;28;101872;-62
2023/08/05 11:15:07;;;;;;;5.00;4.60;;;;;;;17.37;100.00;96000.19;4971943;28;103074;-63
2023/08/05 11:17:53;;;;;;;4.67;4.37;;;;;;;17.43;100.00;96009.00;4975030;28;102723;-63
2023/08/05 11:20:20;;;;;;;4.63;4.33;;;;;;;17.33;100.00;95998.41;4970418;28;105239;-64